sensor_id;sensor_type;location;lat;lon;timestamp;pressure;altitude;pressure_sealevel;temperature;humidity
22572;BME280;11452;53.368;14.658;2023-04-09T00:00:21;102172.16;;;8.40;80.52
22572;BME280;11452;53.368;14.658;2023-04-09T00:05:27;102164.66;;;8.38;81.14
22572;BME280;11452;53.368;14.658;2023-04-09T00:10:32;102153.16;;;8.54;81.35
22572;BME280;11452;53.368;14.658;2023-04-09T00:15:38;102154.31;;;8.61;81.32
22572;BME280;11452;53.368;14.658;2023-04-09T00:20:44;102162.45;;;8.38;80.85
22572;BME280;11452;53.368;14.658;2023-04-09T00:25:49;102157.71;;;8.32;81.17
22572;BME280;11452;53.368;14.658;2023-04-09T00:30:55;102155.98;;;8.28;81.45
22572;BME280;11452;53.368;14.658;2023-04-09T00:36:00;102159.73;;;8.20;81.47
22572;BME280;11452;53.368;14.658;2023-04-09T00:41:06;102157.13;;;8.17;82.12
22572;BME280;11452;53.368;14.658;2023-04-09T00:46:12;102165.64;;;8.15;82.09
22572;BME280;11452;53.368;14.658;2023-04-09T00:51:18;102155.42;;;8.16;82.24
22572;BME280;11452;53.368;14.658;2023-04-09T00:56:24;102153.98;;;7.99;81.84
22572;BME280;11452;53.368;14.658;2023-04-09T01:01:30;102153.76;;;7.91;82.52
22572;BME280;11452;53.368;14.658;2023-04-09T01:06:48;102153.49;;;7.82;82.77
22572;BME280;11452;53.368;14.658;2023-04-09T01:17:14;102151.05;;;7.73;83.44
22572;BME280;11452;53.368;14.658;2023-04-09T01:22:27;102161.60;;;7.78;83.50
22572;BME280;11452;53.368;14.658;2023-04-09T01:27:32;102160.52;;;7.65;83.36
22572;BME280;11452;53.368;14.658;2023-04-09T01:32:38;102159.16;;;7.67;83.65
22572;BME280;11452;53.368;14.658;2023-04-09T01:37:45;102165.44;;;7.63;83.50
22572;BME280;11452;53.368;14.658;2023-04-09T01:42:51;102159.64;;;7.65;84.22
22572;BME280;11452;53.368;14.658;2023-04-09T01:47:59;102154.31;;;7.65;83.84
22572;BME280;11452;53.368;14.658;2023-04-09T01:53:06;102155.27;;;7.42;83.75
22572;BME280;11452;53.368;14.658;2023-04-09T01:58:13;102150.62;;;7.51;84.47
22572;BME280;11452;53.368;14.658;2023-04-09T02:03:30;102150.46;;;7.38;84.04
22572;BME280;11452;53.368;14.658;2023-04-09T02:08:30;102151.39;;;7.36;84.37
22572;BME280;11452;53.368;14.658;2023-04-09T02:13:39;102157.98;;;7.39;84.75
22572;BME280;11452;53.368;14.658;2023-04-09T02:18:45;102151.80;;;7.38;84.80
22572;BME280;11452;53.368;14.658;2023-04-09T02:23:51;102161.44;;;7.42;84.95
22572;BME280;11452;53.368;14.658;2023-04-09T02:28:56;102158.52;;;7.56;85.15
22572;BME280;11452;53.368;14.658;2023-04-09T02:34:02;102157.22;;;7.54;84.99
22572;BME280;11452;53.368;14.658;2023-04-09T02:39:08;102157.05;;;7.41;84.64
22572;BME280;11452;53.368;14.658;2023-04-09T02:44:14;102158.72;;;7.45;85.11
22572;BME280;11452;53.368;14.658;2023-04-09T02:49:20;102161.27;;;7.51;84.83
22572;BME280;11452;53.368;14.658;2023-04-09T02:54:26;102152.04;;;7.47;85.20
22572;BME280;11452;53.368;14.658;2023-04-09T02:59:33;102151.98;;;7.50;84.84
22572;BME280;11452;53.368;14.658;2023-04-09T03:04:39;102145.59;;;7.38;84.92
22572;BME280;11452;53.368;14.658;2023-04-09T03:09:44;102149.22;;;7.34;85.03
22572;BME280;11452;53.368;14.658;2023-04-09T03:14:50;102149.58;;;7.15;85.16
22572;BME280;11452;53.368;14.658;2023-04-09T03:19:56;102140.25;;;7.17;85.34
22572;BME280;11452;53.368;14.658;2023-04-09T03:25:04;102151.05;;;7.30;85.88
22572;BME280;11452;53.368;14.658;2023-04-09T03:30:10;102154.33;;;7.43;86.05
22572;BME280;11452;53.368;14.658;2023-04-09T03:35:18;102150.83;;;7.20;85.31
22572;BME280;11452;53.368;14.658;2023-04-09T03:40:25;102146.50;;;7.37;86.67
22572;BME280;11452;53.368;14.658;2023-04-09T03:45:30;102148.68;;;7.39;86.11
22572;BME280;11452;53.368;14.658;2023-04-09T03:50:41;102142.56;;;7.11;85.61
22572;BME280;11452;53.368;14.658;2023-04-09T03:55:49;102138.55;;;7.13;86.04
22572;BME280;11452;53.368;14.658;2023-04-09T04:00:56;102138.04;;;7.16;86.45
22572;BME280;11452;53.368;14.658;2023-04-09T04:06:04;102136.69;;;7.18;86.70
22572;BME280;11452;53.368;14.658;2023-04-09T04:11:14;102136.71;;;7.16;86.21
22572;BME280;11452;53.368;14.658;2023-04-09T04:16:20;102152.91;;;7.04;85.94
22572;BME280;11452;53.368;14.658;2023-04-09T04:21:27;102148.22;;;6.93;86.70
22572;BME280;11452;53.368;14.658;2023-04-09T04:26:34;102150.22;;;6.82;86.31
22572;BME280;11452;53.368;14.658;2023-04-09T04:31:40;102153.83;;;6.78;87.04
22572;BME280;11452;53.368;14.658;2023-04-09T04:36:46;102148.17;;;6.96;87.63
22572;BME280;11452;53.368;14.658;2023-04-09T04:41:54;102149.50;;;6.96;87.29
22572;BME280;11452;53.368;14.658;2023-04-09T04:47:02;102147.25;;;6.99;87.51
22572;BME280;11452;53.368;14.658;2023-04-09T04:52:07;102141.98;;;6.95;87.85
22572;BME280;11452;53.368;14.658;2023-04-09T04:57:15;102143.94;;;7.08;88.10
22572;BME280;11452;53.368;14.658;2023-04-09T05:02:21;102143.78;;;6.93;87.46
22572;BME280;11452;53.368;14.658;2023-04-09T05:07:32;102147.80;;;6.92;88.29
22572;BME280;11452;53.368;14.658;2023-04-09T05:12:38;102151.39;;;7.13;88.89
22572;BME280;11452;53.368;14.658;2023-04-09T05:17:45;102149.09;;;7.17;88.37
22572;BME280;11452;53.368;14.658;2023-04-09T05:22:52;102152.19;;;7.18;88.28
22572;BME280;11452;53.368;14.658;2023-04-09T05:27:59;102155.27;;;7.19;88.51
22572;BME280;11452;53.368;14.658;2023-04-09T05:33:06;102161.27;;;7.29;88.82
22572;BME280;11452;53.368;14.658;2023-04-09T05:38:12;102160.67;;;7.37;88.69
22572;BME280;11452;53.368;14.658;2023-04-09T05:43:18;102159.56;;;7.47;88.69
22572;BME280;11452;53.368;14.658;2023-04-09T05:48:24;102168.36;;;7.51;88.59
22572;BME280;11452;53.368;14.658;2023-04-09T05:53:31;102167.25;;;7.61;88.97
22572;BME280;11452;53.368;14.658;2023-04-09T05:58:37;102168.53;;;7.64;88.24
22572;BME280;11452;53.368;14.658;2023-04-09T06:03:43;102169.01;;;7.62;88.36
22572;BME280;11452;53.368;14.658;2023-04-09T06:08:49;102167.98;;;7.69;88.34
22572;BME280;11452;53.368;14.658;2023-04-09T06:13:54;102167.65;;;7.84;88.35
22572;BME280;11452;53.368;14.658;2023-04-09T06:19:00;102164.11;;;7.84;88.41
22572;BME280;11452;53.368;14.658;2023-04-09T06:24:06;102162.36;;;7.83;88.05
22572;BME280;11452;53.368;14.658;2023-04-09T06:29:11;102172.22;;;7.79;88.16
22572;BME280;11452;53.368;14.658;2023-04-09T06:34:17;102172.37;;;7.72;88.48
22572;BME280;11452;53.368;14.658;2023-04-09T06:39:23;102172.22;;;7.79;88.77
22572;BME280;11452;53.368;14.658;2023-04-09T06:44:31;102174.96;;;7.95;89.43
22572;BME280;11452;53.368;14.658;2023-04-09T06:49:37;102175.09;;;7.89;88.98
22572;BME280;11452;53.368;14.658;2023-04-09T06:54:42;102179.41;;;7.95;88.99
22572;BME280;11452;53.368;14.658;2023-04-09T06:59:49;102176.13;;;8.02;89.26
22572;BME280;11452;53.368;14.658;2023-04-09T07:04:54;102180.06;;;8.05;89.16
22572;BME280;11452;53.368;14.658;2023-04-09T07:10:00;102187.50;;;8.10;89.25
22572;BME280;11452;53.368;14.658;2023-04-09T07:15:06;102183.17;;;8.44;90.05
22572;BME280;11452;53.368;14.658;2023-04-09T07:20:12;102181.95;;;8.57;89.99
22572;BME280;11452;53.368;14.658;2023-04-09T07:25:19;102176.81;;;8.85;89.19
22572;BME280;11452;53.368;14.658;2023-04-09T07:30:24;102174.61;;;8.67;88.92
22572;BME280;11452;53.368;14.658;2023-04-09T07:35:30;102175.63;;;8.79;88.72
22572;BME280;11452;53.368;14.658;2023-04-09T07:40:38;102174.03;;;9.06;88.91
22572;BME280;11452;53.368;14.658;2023-04-09T07:45:44;102180.33;;;9.03;87.89
22572;BME280;11452;53.368;14.658;2023-04-09T07:50:49;102182.27;;;9.13;88.03
22572;BME280;11452;53.368;14.658;2023-04-09T07:55:55;102186.10;;;8.87;86.69
22572;BME280;11452;53.368;14.658;2023-04-09T08:01:00;102185.84;;;8.96;86.18
22572;BME280;11452;53.368;14.658;2023-04-09T08:06:06;102186.27;;;8.97;86.38
22572;BME280;11452;53.368;14.658;2023-04-09T08:11:12;102184.13;;;8.93;86.05
22572;BME280;11452;53.368;14.658;2023-04-09T08:16:18;102188.48;;;9.14;87.25
22572;BME280;11452;53.368;14.658;2023-04-09T08:21:24;102192.52;;;9.28;87.06
22572;BME280;11452;53.368;14.658;2023-04-09T08:26:30;102183.07;;;9.17;86.80
22572;BME280;11452;53.368;14.658;2023-04-09T08:31:36;102190.61;;;9.33;86.50
22572;BME280;11452;53.368;14.658;2023-04-09T08:36:46;102198.01;;;9.24;85.47
22572;BME280;11452;53.368;14.658;2023-04-09T08:41:56;102194.09;;;9.52;86.93
22572;BME280;11452;53.368;14.658;2023-04-09T08:47:07;102197.36;;;9.63;86.11
22572;BME280;11452;53.368;14.658;2023-04-09T08:52:15;102192.94;;;9.62;85.13
22572;BME280;11452;53.368;14.658;2023-04-09T08:57:22;102200.85;;;9.49;84.40
22572;BME280;11452;53.368;14.658;2023-04-09T09:02:27;102202.48;;;9.54;85.11
22572;BME280;11452;53.368;14.658;2023-04-09T09:07:35;102195.27;;;9.72;85.10
22572;BME280;11452;53.368;14.658;2023-04-09T09:12:41;102209.73;;;9.49;82.94
22572;BME280;11452;53.368;14.658;2023-04-09T09:17:55;102201.64;;;9.52;84.04
22572;BME280;11452;53.368;14.658;2023-04-09T09:23:02;102198.45;;;9.70;85.10
22572;BME280;11452;53.368;14.658;2023-04-09T09:28:09;102194.89;;;10.01;84.43
22572;BME280;11452;53.368;14.658;2023-04-09T09:33:15;102197.22;;;10.12;84.32
22572;BME280;11452;53.368;14.658;2023-04-09T09:38:21;102198.73;;;10.05;83.33
22572;BME280;11452;53.368;14.658;2023-04-09T09:43:39;102194.47;;;10.00;83.71
22572;BME280;11452;53.368;14.658;2023-04-09T09:48:37;102186.45;;;10.29;84.03
22572;BME280;11452;53.368;14.658;2023-04-09T09:53:47;102190.27;;;10.35;82.17
22572;BME280;11452;53.368;14.658;2023-04-09T09:59:19;102187.88;;;10.67;84.00
22572;BME280;11452;53.368;14.658;2023-04-09T10:04:20;102181.24;;;10.92;82.88
22572;BME280;11452;53.368;14.658;2023-04-09T10:09:28;102178.91;;;11.08;82.25
22572;BME280;11452;53.368;14.658;2023-04-09T10:14:34;102179.59;;;11.38;82.15
22572;BME280;11452;53.368;14.658;2023-04-09T10:19:44;102182.16;;;11.29;80.74
22572;BME280;11452;53.368;14.658;2023-04-09T10:24:49;102186.90;;;11.58;81.00
22572;BME280;11452;53.368;14.658;2023-04-09T10:29:55;102179.36;;;11.69;80.51
22572;BME280;11452;53.368;14.658;2023-04-09T10:35:03;102173.67;;;11.78;79.79
22572;BME280;11452;53.368;14.658;2023-04-09T10:40:17;102176.02;;;12.09;80.25
22572;BME280;11452;53.368;14.658;2023-04-09T10:45:20;102170.05;;;12.02;77.69
22572;BME280;11452;53.368;14.658;2023-04-09T10:50:27;102172.44;;;11.98;76.86
22572;BME280;11452;53.368;14.658;2023-04-09T10:55:35;102167.25;;;12.27;77.88
22572;BME280;11452;53.368;14.658;2023-04-09T11:00:43;102167.42;;;12.34;75.95
22572;BME280;11452;53.368;14.658;2023-04-09T11:05:58;102155.70;;;12.25;76.45
22572;BME280;11452;53.368;14.658;2023-04-09T11:11:04;102157.38;;;12.71;76.37
22572;BME280;11452;53.368;14.658;2023-04-09T11:16:11;102151.44;;;12.43;75.78
22572;BME280;11452;53.368;14.658;2023-04-09T11:21:18;102154.77;;;12.38;73.83
22572;BME280;11452;53.368;14.658;2023-04-09T11:26:33;102153.61;;;12.43;74.56
22572;BME280;11452;53.368;14.658;2023-04-09T11:31:32;102156.44;;;12.72;73.28
22572;BME280;11452;53.368;14.658;2023-04-09T11:36:38;102158.84;;;12.36;72.79
22572;BME280;11452;53.368;14.658;2023-04-09T11:41:44;102162.76;;;12.28;72.73
22572;BME280;11452;53.368;14.658;2023-04-09T11:46:50;102154.59;;;12.42;72.00
22572;BME280;11452;53.368;14.658;2023-04-09T11:51:56;102153.31;;;12.51;71.93
22572;BME280;11452;53.368;14.658;2023-04-09T11:57:05;102152.72;;;12.97;72.39
22572;BME280;11452;53.368;14.658;2023-04-09T12:02:11;102146.25;;;13.01;69.56
22572;BME280;11452;53.368;14.658;2023-04-09T12:07:18;102152.80;;;13.36;69.72
22572;BME280;11452;53.368;14.658;2023-04-09T12:12:24;102153.83;;;13.01;67.52
22572;BME280;11452;53.368;14.658;2023-04-09T12:17:31;102153.91;;;12.90;67.24
22572;BME280;11452;53.368;14.658;2023-04-09T12:22:38;102145.05;;;13.08;65.43
22572;BME280;11452;53.368;14.658;2023-04-09T12:27:45;102145.77;;;13.81;66.49
22572;BME280;11452;53.368;14.658;2023-04-09T12:32:52;102146.16;;;13.82;64.62
22572;BME280;11452;53.368;14.658;2023-04-09T12:37:58;102152.47;;;13.91;63.95
22572;BME280;11452;53.368;14.658;2023-04-09T12:43:04;102151.12;;;13.91;62.48
22572;BME280;11452;53.368;14.658;2023-04-09T12:48:10;102151.99;;;14.19;64.26
22572;BME280;11452;53.368;14.658;2023-04-09T12:53:15;102146.36;;;14.15;61.07
22572;BME280;11452;53.368;14.658;2023-04-09T12:58:21;102142.77;;;14.33;61.61
22572;BME280;11452;53.368;14.658;2023-04-09T13:03:27;102144.04;;;14.26;61.07
22572;BME280;11452;53.368;14.658;2023-04-09T13:08:33;102143.56;;;14.35;60.91
22572;BME280;11452;53.368;14.658;2023-04-09T13:13:39;102144.75;;;14.57;60.39
22572;BME280;11452;53.368;14.658;2023-04-09T13:18:46;102134.80;;;14.76;60.72
22572;BME280;11452;53.368;14.658;2023-04-09T13:23:51;102134.55;;;14.72;58.88
22572;BME280;11452;53.368;14.658;2023-04-09T13:28:57;102126.88;;;14.37;58.74
22572;BME280;11452;53.368;14.658;2023-04-09T13:34:03;102112.56;;;14.28;58.18
22572;BME280;11452;53.368;14.658;2023-04-09T13:39:09;102110.16;;;14.41;58.60
22572;BME280;11452;53.368;14.658;2023-04-09T13:44:15;102109.80;;;14.38;57.16
22572;BME280;11452;53.368;14.658;2023-04-09T13:49:21;102115.93;;;14.50;57.76
22572;BME280;11452;53.368;14.658;2023-04-09T13:54:26;102103.67;;;14.53;57.27
22572;BME280;11452;53.368;14.658;2023-04-09T13:59:32;102100.73;;;14.41;56.80
22572;BME280;11452;53.368;14.658;2023-04-09T14:04:37;102095.22;;;14.34;57.83
22572;BME280;11452;53.368;14.658;2023-04-09T14:09:43;102085.81;;;14.25;56.93
22572;BME280;11452;53.368;14.658;2023-04-09T14:14:49;102087.84;;;14.56;57.67
22572;BME280;11452;53.368;14.658;2023-04-09T14:19:55;102091.36;;;14.39;55.84
22572;BME280;11452;53.368;14.658;2023-04-09T14:25:02;102084.53;;;14.60;57.39
22572;BME280;11452;53.368;14.658;2023-04-09T14:30:10;102080.55;;;14.49;54.87
22572;BME280;11452;53.368;14.658;2023-04-09T14:35:15;102075.17;;;14.49;55.67
22572;BME280;11452;53.368;14.658;2023-04-09T14:40:21;102069.20;;;14.34;55.34
22572;BME280;11452;53.368;14.658;2023-04-09T14:45:27;102066.56;;;14.60;55.44
22572;BME280;11452;53.368;14.658;2023-04-09T14:50:34;102066.06;;;14.95;55.70
22572;BME280;11452;53.368;14.658;2023-04-09T14:55:40;102061.17;;;14.77;55.03
22572;BME280;11452;53.368;14.658;2023-04-09T15:00:46;102055.88;;;14.59;54.45
22572;BME280;11452;53.368;14.658;2023-04-09T15:05:52;102050.89;;;14.60;54.63
22572;BME280;11452;53.368;14.658;2023-04-09T15:10:58;102055.80;;;14.43;54.40
22572;BME280;11452;53.368;14.658;2023-04-09T15:16:04;102052.78;;;14.75;54.64
22572;BME280;11452;53.368;14.658;2023-04-09T15:21:09;102053.73;;;14.82;55.13
22572;BME280;11452;53.368;14.658;2023-04-09T15:26:15;102060.44;;;15.00;54.82
22572;BME280;11452;53.368;14.658;2023-04-09T15:31:20;102056.31;;;15.01;54.16
22572;BME280;11452;53.368;14.658;2023-04-09T15:36:26;102058.22;;;14.99;53.26
22572;BME280;11452;53.368;14.658;2023-04-09T15:41:33;102070.64;;;14.84;53.42
22572;BME280;11452;53.368;14.658;2023-04-09T15:46:39;102065.66;;;14.85;53.04
22572;BME280;11452;53.368;14.658;2023-04-09T15:51:44;102069.63;;;14.70;52.81
22572;BME280;11452;53.368;14.658;2023-04-09T15:56:50;102063.09;;;14.31;52.94
22572;BME280;11452;53.368;14.658;2023-04-09T16:01:56;102057.81;;;14.38;53.13
22572;BME280;11452;53.368;14.658;2023-04-09T16:07:02;102059.05;;;14.58;53.90
22572;BME280;11452;53.368;14.658;2023-04-09T16:12:08;102062.52;;;14.77;53.08
22572;BME280;11452;53.368;14.658;2023-04-09T16:17:13;102063.06;;;14.49;53.02
22572;BME280;11452;53.368;14.658;2023-04-09T16:22:19;102054.53;;;14.59;53.29
22572;BME280;11452;53.368;14.658;2023-04-09T16:27:24;102062.83;;;14.71;54.30
22572;BME280;11452;53.368;14.658;2023-04-09T16:32:30;102057.47;;;15.04;53.66
22572;BME280;11452;53.368;14.658;2023-04-09T16:37:36;102059.91;;;15.42;54.29
22572;BME280;11452;53.368;14.658;2023-04-09T16:42:42;102053.50;;;15.20;51.38
22572;BME280;11452;53.368;14.658;2023-04-09T16:47:51;102051.61;;;14.46;51.65
22572;BME280;11452;53.368;14.658;2023-04-09T16:52:57;102061.80;;;14.03;52.08
22572;BME280;11452;53.368;14.658;2023-04-09T16:58:04;102057.88;;;13.92;52.79
22572;BME280;11452;53.368;14.658;2023-04-09T17:03:10;102063.61;;;13.57;52.79
22572;BME280;11452;53.368;14.658;2023-04-09T17:08:17;102063.78;;;13.54;53.32
22572;BME280;11452;53.368;14.658;2023-04-09T17:13:25;102067.14;;;13.20;54.07
22572;BME280;11452;53.368;14.658;2023-04-09T17:18:30;102071.23;;;13.08;54.35
22572;BME280;11452;53.368;14.658;2023-04-09T17:23:37;102068.84;;;12.92;54.82
22572;BME280;11452;53.368;14.658;2023-04-09T17:28:43;102070.98;;;12.83;55.11
22572;BME280;11452;53.368;14.658;2023-04-09T17:33:50;102082.95;;;12.44;55.62
22572;BME280;11452;53.368;14.658;2023-04-09T17:38:55;102080.22;;;12.36;56.05
22572;BME280;11452;53.368;14.658;2023-04-09T17:44:01;102089.66;;;12.24;56.43
22572;BME280;11452;53.368;14.658;2023-04-09T17:49:07;102088.62;;;12.17;56.53
22572;BME280;11452;53.368;14.658;2023-04-09T17:54:13;102094.55;;;12.03;56.65
22572;BME280;11452;53.368;14.658;2023-04-09T17:59:18;102098.72;;;11.76;57.09
22572;BME280;11452;53.368;14.658;2023-04-09T18:04:24;102093.69;;;11.56;57.66
22572;BME280;11452;53.368;14.658;2023-04-09T18:09:30;102106.39;;;11.39;57.95
22572;BME280;11452;53.368;14.658;2023-04-09T18:14:36;102104.75;;;11.23;58.24
22572;BME280;11452;53.368;14.658;2023-04-09T18:19:42;102112.11;;;11.05;58.64
22572;BME280;11452;53.368;14.658;2023-04-09T18:24:47;102115.66;;;10.94;58.98
22572;BME280;11452;53.368;14.658;2023-04-09T18:29:53;102115.59;;;10.82;59.28
22572;BME280;11452;53.368;14.658;2023-04-09T18:34:59;102125.55;;;10.65;59.66
22572;BME280;11452;53.368;14.658;2023-04-09T18:40:08;102132.15;;;10.55;59.87
22572;BME280;11452;53.368;14.658;2023-04-09T18:45:16;102130.55;;;10.50;60.22
22572;BME280;11452;53.368;14.658;2023-04-09T18:50:21;102132.91;;;10.32;60.61
22572;BME280;11452;53.368;14.658;2023-04-09T18:55:28;102126.28;;;10.16;60.83
22572;BME280;11452;53.368;14.658;2023-04-09T19:00:35;102121.72;;;10.05;61.45
22572;BME280;11452;53.368;14.658;2023-04-09T19:05:40;102121.75;;;9.90;61.90
22572;BME280;11452;53.368;14.658;2023-04-09T19:10:46;102111.83;;;9.81;62.32
22572;BME280;11452;53.368;14.658;2023-04-09T19:15:52;102112.55;;;9.71;62.81
22572;BME280;11452;53.368;14.658;2023-04-09T19:20:57;102110.03;;;9.81;63.00
22572;BME280;11452;53.368;14.658;2023-04-09T19:26:03;102113.16;;;9.81;62.92
22572;BME280;11452;53.368;14.658;2023-04-09T19:31:10;102116.64;;;9.68;63.02
22572;BME280;11452;53.368;14.658;2023-04-09T19:36:17;102117.23;;;9.64;63.39
22572;BME280;11452;53.368;14.658;2023-04-09T19:41:22;102115.47;;;9.63;63.39
22572;BME280;11452;53.368;14.658;2023-04-09T19:46:28;102126.58;;;9.48;63.47
22572;BME280;11452;53.368;14.658;2023-04-09T19:51:34;102135.66;;;9.43;63.96
22572;BME280;11452;53.368;14.658;2023-04-09T19:56:39;102134.70;;;9.45;64.04
22572;BME280;11452;53.368;14.658;2023-04-09T20:01:45;102143.83;;;9.36;64.31
22572;BME280;11452;53.368;14.658;2023-04-09T20:06:52;102142.04;;;9.37;64.63
22572;BME280;11452;53.368;14.658;2023-04-09T20:11:59;102133.20;;;9.35;64.69
22572;BME280;11452;53.368;14.658;2023-04-09T20:17:08;102137.60;;;9.21;65.02
22572;BME280;11452;53.368;14.658;2023-04-09T20:22:14;102142.52;;;9.20;65.27
22572;BME280;11452;53.368;14.658;2023-04-09T20:27:22;102142.76;;;9.11;65.44
22572;BME280;11452;53.368;14.658;2023-04-09T20:32:27;102151.03;;;9.02;65.63
22572;BME280;11452;53.368;14.658;2023-04-09T20:37:33;102161.69;;;8.86;66.01
22572;BME280;11452;53.368;14.658;2023-04-09T20:42:40;102160.36;;;8.86;66.37
22572;BME280;11452;53.368;14.658;2023-04-09T20:47:46;102157.23;;;8.86;66.61
22572;BME280;11452;53.368;14.658;2023-04-09T20:52:52;102151.97;;;8.83;66.63
22572;BME280;11452;53.368;14.658;2023-04-09T20:57:57;102154.52;;;8.72;66.77
22572;BME280;11452;53.368;14.658;2023-04-09T21:03:03;102146.84;;;8.58;66.96
22572;BME280;11452;53.368;14.658;2023-04-09T21:08:09;102147.44;;;8.53;67.32
22572;BME280;11452;53.368;14.658;2023-04-09T21:13:16;102144.01;;;8.48;67.55
22572;BME280;11452;53.368;14.658;2023-04-09T21:18:22;102148.08;;;8.45;67.65
22572;BME280;11452;53.368;14.658;2023-04-09T21:23:28;102143.38;;;8.37;67.96
22572;BME280;11452;53.368;14.658;2023-04-09T21:28:33;102144.39;;;8.31;67.84
22572;BME280;11452;53.368;14.658;2023-04-09T21:33:39;102149.14;;;8.17;68.25
22572;BME280;11452;53.368;14.658;2023-04-09T21:38:44;102147.42;;;8.16;68.40
22572;BME280;11452;53.368;14.658;2023-04-09T21:43:50;102138.66;;;8.11;68.61
22572;BME280;11452;53.368;14.658;2023-04-09T21:48:56;102141.75;;;8.12;68.75
22572;BME280;11452;53.368;14.658;2023-04-09T21:54:03;102147.72;;;8.02;68.98
22572;BME280;11452;53.368;14.658;2023-04-09T21:59:08;102134.19;;;7.93;68.84
22572;BME280;11452;53.368;14.658;2023-04-09T22:04:14;102133.41;;;7.88;69.11
22572;BME280;11452;53.368;14.658;2023-04-09T22:09:20;102140.48;;;7.89;69.38
22572;BME280;11452;53.368;14.658;2023-04-09T22:14:25;102136.09;;;7.87;69.39
22572;BME280;11452;53.368;14.658;2023-04-09T22:19:33;102134.86;;;7.82;69.42
22572;BME280;11452;53.368;14.658;2023-04-09T22:24:41;102129.30;;;7.74;69.27
22572;BME280;11452;53.368;14.658;2023-04-09T22:29:47;102131.16;;;7.70;69.58
22572;BME280;11452;53.368;14.658;2023-04-09T22:34:52;102122.38;;;7.65;69.70
22572;BME280;11452;53.368;14.658;2023-04-09T22:39:58;102126.11;;;7.58;69.56
22572;BME280;11452;53.368;14.658;2023-04-09T22:45:04;102123.05;;;7.55;69.80
22572;BME280;11452;53.368;14.658;2023-04-09T22:50:10;102126.68;;;7.51;69.96
22572;BME280;11452;53.368;14.658;2023-04-09T22:55:16;102129.82;;;7.49;70.00
22572;BME280;11452;53.368;14.658;2023-04-09T23:00:22;102126.02;;;7.42;69.93
22572;BME280;11452;53.368;14.658;2023-04-09T23:05:28;102130.94;;;7.39;69.94
22572;BME280;11452;53.368;14.658;2023-04-09T23:10:34;102134.25;;;7.28;70.17
22572;BME280;11452;53.368;14.658;2023-04-09T23:15:40;102129.44;;;7.24;70.21
22572;BME280;11452;53.368;14.658;2023-04-09T23:20:45;102125.54;;;7.21;70.36
22572;BME280;11452;53.368;14.658;2023-04-09T23:25:51;102129.08;;;7.22;70.51
22572;BME280;11452;53.368;14.658;2023-04-09T23:30:56;102120.33;;;7.15;70.43
22572;BME280;11452;53.368;14.658;2023-04-09T23:36:02;102117.36;;;7.08;70.48
22572;BME280;11452;53.368;14.658;2023-04-09T23:41:08;102114.84;;;7.02;70.53
22572;BME280;11452;53.368;14.658;2023-04-09T23:46:13;102120.74;;;6.94;70.70
22572;BME280;11452;53.368;14.658;2023-04-09T23:51:19;102116.33;;;6.93;70.78
22572;BME280;11452;53.368;14.658;2023-04-09T23:56:26;102109.34;;;6.87;70.90
